Terminal Aerodrome Forecast
Issued by NWS

Home | Current Version | Previous Version | Text Only | Print | Product List | Glossary On
Versions: 1 2 3 4 5 6 7 8 9 10 11 12 13 14 15 16 17 18 19 20 21 22 23 24 25 26
000
FTUS43 KDLH 261140
TAFHYR
TAF
KHYR 261140Z 2612/2712 31005KT P6SM -RA OVC060
     FM261400 33009KT P6SM BKN060
     FM261900 34012G20KT P6SM VCSH BKN050
     FM262200 31010G18KT P6SM VCTS BKN045CB
     FM270200 29003KT P6SM SCT050=

USA.gov is the U.S. government's official web portal to all federal, state and local government web resources and services.